Time;durP1;ratioP1;P1;durP2;ratioP2;P2;SDS_P1;SDS_P2;PMS_P1;PMS_P2;Temp;Humidity;BMP_temperature;BMP_pressure;BME280_temperature;BME280_humidity;BME280_pressure;Samples;Min_cycle;Max_cycle;Signal;HPM_P1;HPM_P2
2023/06/20 00:01:21;;;;;;;6.72;6.05;;;;;;;17.57;83.36;63822.09;5069325;28;20299;-72
2023/06/20 00:03:48;;;;;;;5.53;5.13;;;;;;;17.66;82.76;63818.06;5065186;28;20204;-73
2023/06/20 00:06:19;;;;;;;5.95;5.45;;;;;;;17.58;82.57;63818.00;5066667;28;20221;-73
2023/06/20 00:08:46;;;;;;;7.20;5.07;;;;;;;17.58;83.08;63814.91;5075119;28;20223;-72
2023/06/20 00:11:13;;;;;;;6.40;5.85;;;;;;;17.58;83.93;63820.06;5064659;28;20201;-73
2023/06/20 00:13:42;;;;;;;5.30;4.80;;;;;;;17.53;83.99;63815.38;5064916;28;20449;-73
2023/06/20 00:16:10;;;;;;;6.05;5.55;;;;;;;17.52;83.49;63816.38;5065053;28;20540;-73
2023/06/20 00:18:37;;;;;;;5.50;5.10;;;;;;;17.51;84.90;63810.72;5064052;28;20224;-73
2023/06/20 00:21:04;;;;;;;6.18;5.53;;;;;;;17.50;85.80;63809.16;5065746;28;20446;-74
2023/06/20 00:23:32;;;;;;;5.50;5.00;;;;;;;17.47;85.88;63806.03;5065856;28;20219;-71
2023/06/20 00:26:00;;;;;;;6.25;5.57;;;;;;;17.47;86.76;63808.59;5070843;28;20240;-73
2023/06/20 00:28:27;;;;;;;7.82;5.32;;;;;;;17.42;88.40;63800.78;5081933;28;20260;-72
2023/06/20 00:30:54;;;;;;;8.05;6.38;;;;;;;17.36;88.55;63795.06;5084800;28;20501;-73
2023/06/20 00:33:22;;;;;;;6.82;5.18;;;;;;;17.31;90.91;63792.97;5085082;28;20196;-72
2023/06/20 00:35:49;;;;;;;6.07;5.60;;;;;;;17.23;92.37;63784.13;5081331;28;20224;-72
2023/06/20 00:38:16;;;;;;;6.30;5.68;;;;;;;17.19;92.77;63780.47;5083763;28;20215;-72
2023/06/20 00:40:44;;;;;;;6.93;6.32;;;;;;;17.10;93.44;63768.00;5068488;28;20267;-73
2023/06/20 00:43:12;;;;;;;6.90;6.13;;;;;;;17.11;93.77;63766.47;5078219;28;20429;-73
2023/06/20 00:45:41;;;;;;;6.57;5.97;;;;;;;17.04;93.91;63759.72;5081887;28;20219;-73
2023/06/20 00:48:09;;;;;;;5.45;5.05;;;;;;;17.02;94.50;63757.09;5085660;28;20200;-74
2023/06/20 00:50:37;;;;;;;6.15;5.65;;;;;;;16.92;94.87;63754.94;5076668;28;20228;-75
2023/06/20 00:53:05;;;;;;;7.72;6.60;;;;;;;16.89;95.94;63746.16;5067322;28;20223;-73
2023/06/20 00:55:33;;;;;;;6.75;6.15;;;;;;;16.89;96.33;63751.28;5085006;28;20227;-73
2023/06/20 00:58:04;;;;;;;6.10;5.70;;;;;;;16.86;96.83;63743.03;5064620;28;20402;-74
2023/06/20 01:00:32;;;;;;;6.38;5.78;;;;;;;16.80;99.13;63736.78;5064312;28;20308;-72
2023/06/20 01:03:03;;;;;;;8.35;6.00;;;;;;;16.79;99.42;63738.81;5074188;28;20207;-72
2023/06/20 01:05:31;;;;;;;6.47;5.68;;;;;;;16.77;98.96;63734.19;5064114;28;20231;-73
2023/06/20 01:08:04;;;;;;;5.25;4.82;;;;;;;16.71;99.27;63727.94;5062438;28;20250;-73
2023/06/20 01:10:44;;;;;;;6.43;5.93;;;;;;;16.67;100.00;63723.25;5063626;28;20236;-74
2023/06/20 01:13:23;;;;;;;11.02;5.20;;;;;;;16.68;100.00;63726.88;5064605;28;20304;-72
2023/06/20 01:16:00;;;;;;;6.53;5.95;;;;;;;16.62;100.00;63715.50;5062719;28;20239;-72
2023/06/20 01:18:44;;;;;;;6.47;5.90;;;;;;;16.54;100.00;63712.28;5063203;28;20255;-74
2023/06/20 01:21:16;;;;;;;7.72;5.47;;;;;;;16.48;100.00;63706.06;5076444;28;20211;-74
2023/06/20 01:23:52;;;;;;;6.80;6.18;;;;;;;16.41;100.00;63696.69;5083645;28;20298;-73
2023/06/20 01:26:32;;;;;;;6.25;5.65;;;;;;;16.35;100.00;63689.94;5066648;28;20232;-73
2023/06/20 01:29:11;;;;;;;6.80;5.72;;;;;;;16.32;100.00;63689.41;5063616;28;20248;-74
2023/06/20 01:31:40;;;;;;;6.40;5.90;;;;;;;16.30;100.00;63687.31;5084200;28;20247;-76
2023/06/20 01:34:15;;;;;;;6.88;6.25;;;;;;;16.30;100.00;63682.16;5067134;28;20200;-74
2023/06/20 01:36:47;;;;;;;7.93;6.43;;;;;;;16.28;100.00;63685.75;5064296;28;20216;-73
2023/06/20 01:39:22;;;;;;;6.90;6.00;;;;;;;16.23;100.00;63675.41;5061895;28;20250;-76
2023/06/20 01:41:52;;;;;;;6.60;6.00;;;;;;;16.20;100.00;63674.88;5064456;28;20216;-73
2023/06/20 01:44:22;;;;;;;6.82;6.13;;;;;;;16.11;100.00;63668.59;5063901;28;20203;-74
2023/06/20 01:46:52;;;;;;;8.32;6.50;;;;;;;16.01;100.00;63655.59;5062850;28;20221;-74
2023/06/20 01:49:20;;;;;;;6.25;5.75;;;;;;;16.02;100.00;63659.22;5066067;28;20232;-72
2023/06/20 01:51:50;;;;;;;7.32;6.70;;;;;;;16.09;100.00;63668.56;5064057;28;20212;-72
2023/06/20 01:54:19;;;;;;;7.82;6.88;;;;;;;16.11;100.00;63668.06;5063643;28;20189;-72
2023/06/20 01:56:48;;;;;;;6.85;6.07;;;;;;;16.13;100.00;63665.53;5062132;28;20531;-75
2023/06/20 01:59:16;;;;;;;6.93;6.30;;;;;;;16.08;100.00;63667.53;5066981;28;20242;-75
2023/06/20 02:01:46;;;;;;;6.47;5.93;;;;;;;16.14;100.00;63673.75;5069822;28;20232;-72
2023/06/20 02:04:13;;;;;;;6.57;6.00;;;;;;;16.12;100.00;63669.63;5067736;28;20219;-73
2023/06/20 02:06:40;;;;;;;10.75;6.40;;;;;;;16.14;100.00;63666.56;5081446;28;20294;-73
2023/06/20 02:09:09;;;;;;;7.18;6.28;;;;;;;16.13;100.00;63670.66;5081275;28;20288;-77
2023/06/20 02:11:38;;;;;;;6.90;6.20;;;;;;;16.15;100.00;63672.25;5068455;28;20208;-77
2023/06/20 02:14:07;;;;;;;6.38;5.72;;;;;;;16.11;100.00;63665.50;5067492;28;20205;-77
2023/06/20 02:16:35;;;;;;;6.70;6.10;;;;;;;16.07;100.00;63661.34;5086759;28;20250;-73
2023/06/20 02:19:03;;;;;;;7.10;6.43;;;;;;;16.04;100.00;63658.22;5087841;28;20249;-73
2023/06/20 02:21:37;;;;;;;6.28;5.72;;;;;;;16.03;100.00;63660.25;5086983;28;20216;-72
2023/06/20 02:24:07;;;;;;;7.38;5.97;;;;;;;15.97;100.00;63653.50;5069711;28;20207;-74
2023/06/20 02:26:37;;;;;;;7.03;6.32;;;;;;;15.89;100.00;63640.56;5079298;28;20232;-72
2023/06/20 02:29:09;;;;;;;9.38;6.53;;;;;;;15.85;100.00;63638.47;5088893;28;20433;-71
2023/06/20 02:31:41;;;;;;;7.53;6.47;;;;;;;15.82;100.00;63638.44;5071160;28;20287;-73
2023/06/20 02:34:11;;;;;;;6.65;6.05;;;;;;;15.80;100.00;63636.34;5082615;28;20426;-73
2023/06/20 02:36:39;;;;;;;7.03;6.38;;;;;;;15.80;100.00;63635.84;5087275;28;20224;-72
2023/06/20 02:39:06;;;;;;;6.97;6.40;;;;;;;15.71;100.00;63627.00;5068880;28;20231;-73
2023/06/20 02:41:34;;;;;;;6.82;6.22;;;;;;;15.72;100.00;63627.53;5066556;28;20225;-73
2023/06/20 02:44:01;;;;;;;6.45;5.95;;;;;;;15.71;100.00;63618.75;5076600;28;20272;-73
2023/06/20 02:46:34;;;;;;;6.72;5.93;;;;;;;15.70;100.00;63628.00;5086832;28;20541;-73
2023/06/20 02:49:12;;;;;;;7.30;6.68;;;;;;;15.72;100.00;63625.47;5083903;28;20501;-72
2023/06/20 02:51:48;;;;;;;7.45;6.75;;;;;;;15.69;100.00;63621.81;5072838;28;20228;-74
2023/06/20 02:54:18;;;;;;;7.63;7.03;;;;;;;15.69;100.00;63621.81;5066876;28;20400;-77
2023/06/20 02:56:51;;;;;;;7.15;6.45;;;;;;;15.67;100.00;63627.47;5068732;28;20216;-74
2023/06/20 02:59:22;;;;;;;7.13;6.45;;;;;;;15.67;100.00;63622.81;5070688;28;20211;-73
2023/06/20 03:01:56;;;;;;;6.53;5.93;;;;;;;15.61;100.00;63616.59;5076173;28;20221;-73
2023/06/20 03:04:27;;;;;;;6.57;6.05;;;;;;;15.62;100.00;63615.06;5067027;28;20220;-74
2023/06/20 03:06:56;;;;;;;7.22;6.57;;;;;;;15.68;100.00;63629.00;5068997;28;20220;-73
2023/06/20 03:09:24;;;;;;;7.30;6.60;;;;;;;15.75;100.00;63630.63;5072240;28;20220;-74
2023/06/20 03:11:52;;;;;;;6.22;5.65;;;;;;;15.72;100.00;63625.47;5079156;28;20220;-76
2023/06/20 03:14:20;;;;;;;6.93;6.22;;;;;;;15.74;100.00;63624.97;5082931;28;20511;-73
2023/06/20 03:16:47;;;;;;;7.63;6.90;;;;;;;15.78;100.00;63628.63;5086759;28;20528;-72
2023/06/20 03:19:17;;;;;;;10.00;7.18;;;;;;;15.85;100.00;63638.47;5082732;28;20204;-73
2023/06/20 03:21:44;;;;;;;9.82;8.20;;;;;;;15.92;100.00;63648.31;5067869;28;20567;-74
2023/06/20 03:24:11;;;;;;;10.48;8.25;;;;;;;15.97;100.00;63651.47;5068876;28;20235;-74
2023/06/20 03:26:40;;;;;;;9.10;7.97;;;;;;;15.98;100.00;63654.53;5074485;28;20221;-73
2023/06/20 03:29:08;;;;;;;9.52;8.60;;;;;;;16.05;100.00;63664.91;5069578;28;20415;-73
2023/06/20 03:31:35;;;;;;;10.73;8.98;;;;;;;16.03;100.00;63660.25;5070218;28;20240;-73
2023/06/20 03:34:03;;;;;;;9.95;8.52;;;;;;;16.16;100.00;63673.28;5065589;28;20435;-74
2023/06/20 03:36:32;;;;;;;12.80;9.48;;;;;;;16.26;100.00;63678.53;5067428;28;20233;-76
2023/06/20 03:39:00;;;;;;;9.30;7.75;;;;;;;16.32;100.00;63689.91;5066660;28;20201;-72
2023/06/20 03:41:27;;;;;;;11.27;9.65;;;;;;;16.43;100.00;63693.63;5065493;28;20259;-73
2023/06/20 03:43:55;;;;;;;9.70;8.50;;;;;;;16.47;100.00;63699.88;5064841;28;20502;-73
2023/06/20 03:46:22;;;;;;;7.90;7.13;;;;;;;16.43;100.00;63700.84;5082177;28;20226;-74
2023/06/20 03:48:49;;;;;;;10.93;9.35;;;;;;;16.51;100.00;63709.19;5084595;28;20401;-71
2023/06/20 03:51:16;;;;;;;10.60;8.93;;;;;;;16.61;100.00;63712.41;5083232;28;20554;-72
2023/06/20 03:53:44;;;;;;;9.07;8.10;;;;;;;16.61;100.00;63717.00;5067158;28;20271;-71
2023/06/20 03:56:11;;;;;;;10.48;7.63;;;;;;;16.55;100.00;63713.34;5085336;28;20318;-71
2023/06/20 03:58:38;;;;;;;9.77;8.68;;;;;;;16.63;100.00;63721.66;5070029;28;20223;-71
2023/06/20 04:01:06;;;;;;;13.13;10.52;;;;;;;16.67;100.00;63720.69;5064928;28;20273;-73
2023/06/20 04:03:34;;;;;;;10.00;8.82;;;;;;;16.83;100.00;63745.03;5074519;28;20196;-75
2023/06/20 04:06:02;;;;;;;14.23;9.65;;;;;;;16.92;100.00;63749.28;5086715;28;20247;-72
2023/06/20 04:08:29;;;;;;;17.38;10.52;;;;;;;16.96;100.00;63753.44;5079350;28;20207;-72
2023/06/20 04:10:57;;;;;;;11.32;10.20;;;;;;;17.00;100.00;63755.03;5064443;28;20237;-71
2023/06/20 04:13:24;;;;;;;11.45;10.25;;;;;;;17.02;100.00;63760.19;5067082;28;20201;-73
2023/06/20 04:15:52;;;;;;;13.80;9.80;;;;;;;17.09;100.00;63769.53;5064846;28;20280;-73
2023/06/20 04:18:19;;;;;;;13.85;10.55;;;;;;;17.27;100.00;63785.72;5067484;28;20509;-71
2023/06/20 04:20:45;;;;;;;9.95;8.88;;;;;;;17.46;100.00;63808.09;5065487;28;20295;-73
2023/06/20 04:23:12;;;;;;;10.73;7.95;;;;;;;17.65;100.00;63825.31;5082334;28;20368;-71
2023/06/20 04:25:39;;;;;;;12.30;8.75;;;;;;;17.87;100.00;63845.63;5079293;28;20222;-71
2023/06/20 04:28:08;;;;;;;10.40;9.40;;;;;;;18.03;100.00;63872.59;5075272;28;20211;-73
2023/06/20 04:30:35;;;;;;;14.05;9.45;;;;;;;18.03;100.00;63861.78;5084127;28;20289;-72
2023/06/20 04:33:02;;;;;;;10.63;9.30;;;;;;;18.08;100.00;63870.09;5080640;28;20259;-72
2023/06/20 04:35:31;;;;;;;9.20;8.30;;;;;;;18.18;100.00;63877.94;5066782;28;20224;-72
2023/06/20 04:38:01;;;;;;;10.15;8.85;;;;;;;17.91;100.00;63854.44;5065690;28;20200;-71
2023/06/20 04:40:28;;;;;;;9.32;8.40;;;;;;;17.83;100.00;63843.50;5065915;28;20228;-72
2023/06/20 04:42:55;;;;;;;10.00;9.05;;;;;;;17.69;100.00;63832.03;5063477;28;20516;-71
2023/06/20 04:45:24;;;;;;;10.02;9.07;;;;;;;17.66;100.00;63825.81;5065994;28;20224;-72
2023/06/20 04:47:51;;;;;;;10.63;9.52;;;;;;;17.58;100.00;63818.00;5064878;28;20211;-71
2023/06/20 04:50:18;;;;;;;11.00;9.90;;;;;;;17.54;100.00;63815.88;5064919;28;20512;-70
2023/06/20 04:52:45;;;;;;;10.50;9.48;;;;;;;17.58;100.00;63820.06;5066823;28;20200;-72
2023/06/20 04:55:12;;;;;;;10.98;8.93;;;;;;;17.74;100.00;63839.81;5063276;28;20200;-72
2023/06/20 04:57:40;;;;;;;10.85;9.38;;;;;;;17.64;100.00;63823.72;5064083;28;20189;-72
2023/06/20 05:00:10;;;;;;;13.95;9.98;;;;;;;17.70;100.00;63830.50;5075266;28;20238;-72
2023/06/20 05:02:42;;;;;;;12.30;9.63;;;;;;;17.78;100.00;63836.25;5080172;28;20508;-71
2023/06/20 05:05:09;;;;;;;14.32;9.30;;;;;;;17.84;100.00;63845.09;5067129;28;20214;-71
2023/06/20 05:07:36;;;;;;;11.18;8.77;;;;;;;17.89;100.00;63850.28;5065291;28;20200;-71
2023/06/20 05:10:04;;;;;;;14.25;9.60;;;;;;;18.04;100.00;63867.97;5080607;28;20251;-72
2023/06/20 05:12:32;;;;;;;16.85;10.15;;;;;;;18.01;100.00;63865.38;5080177;28;20206;-72
2023/06/20 05:14:59;;;;;;;11.32;9.68;;;;;;;18.05;100.00;63869.53;5066029;28;20533;-72
2023/06/20 05:17:26;;;;;;;11.85;10.32;;;;;;;18.19;100.00;63884.13;5070407;28;20196;-71
2023/06/20 05:19:55;;;;;;;13.57;10.07;;;;;;;18.38;100.00;63901.34;5082702;28;20392;-72
2023/06/20 05:22:22;;;;;;;11.77;10.30;;;;;;;18.45;100.00;63910.69;5071100;28;20284;-72
2023/06/20 05:24:49;;;;;;;16.77;11.18;;;;;;;18.35;100.00;63900.78;5066185;28;20238;-72
2023/06/20 05:27:16;;;;;;;11.95;10.45;;;;;;;18.50;100.00;63912.81;5064490;28;20444;-73
2023/06/20 05:29:43;;;;;;;12.27;9.95;;;;;;;18.63;100.00;63926.38;5063890;28;20200;-71
2023/06/20 05:32:11;;;;;;;12.23;10.65;;;;;;;18.68;100.00;63932.09;5061735;28;20300;-73
2023/06/20 05:34:38;;;;;;;14.27;10.82;;;;;;;18.78;100.00;63947.69;5063483;28;20654;-71
2023/06/20 05:37:06;;;;;;;15.52;10.32;;;;;;;18.95;100.00;63962.81;5079606;28;20270;-71
2023/06/20 05:39:33;;;;;;;13.73;10.00;;;;;;;19.03;100.00;63971.16;5083367;28;20237;-73
2023/06/20 05:42:00;;;;;;;12.38;9.75;;;;;;;19.23;100.00;63988.91;5070184;28;20251;-71
2023/06/20 05:44:27;;;;;;;17.48;9.73;;;;;;;19.39;100.00;64006.16;5062676;28;20193;-72
2023/06/20 05:46:55;;;;;;;13.50;10.10;;;;;;;19.51;100.00;64023.31;5063159;28;20466;-71
2023/06/20 05:49:22;;;;;;;11.23;9.90;;;;;;;19.66;100.00;64031.19;5064725;28;20200;-72
2023/06/20 05:51:49;;;;;;;9.85;8.95;;;;;;;19.76;100.00;64046.78;5063225;28;20224;-72
2023/06/20 05:54:18;;;;;;;11.52;9.38;;;;;;;19.99;100.00;64070.25;5062887;28;20247;-72
2023/06/20 05:56:45;;;;;;;10.95;9.82;;;;;;;20.12;100.00;64083.84;5073423;28;20456;-72
2023/06/20 05:59:13;;;;;;;12.73;9.50;;;;;;;20.24;98.44;64096.88;5061925;28;20445;-72
2023/06/20 06:01:40;;;;;;;9.82;8.27;;;;;;;20.34;98.72;64104.75;5064752;28;20231;-71
2023/06/20 06:04:07;;;;;;;10.40;9.32;;;;;;;20.31;95.92;64101.09;5062929;28;20204;-72
2023/06/20 06:06:35;;;;;;;11.35;9.55;;;;;;;20.11;94.29;64083.31;5077470;28;20281;-72
2023/06/20 06:09:02;;;;;;;10.80;9.45;;;;;;;20.25;97.72;64095.34;5079055;28;20207;-72
2023/06/20 06:11:31;;;;;;;13.35;9.25;;;;;;;20.39;96.53;64106.84;5063470;28;20270;-72
2023/06/20 06:13:57;;;;;;;12.05;10.65;;;;;;;20.26;96.07;64098.47;5062489;28;20381;-72
2023/06/20 06:16:24;;;;;;;10.55;9.45;;;;;;;20.40;94.61;64116.19;5063581;28;20224;-72
2023/06/20 06:18:51;;;;;;;9.57;8.77;;;;;;;20.53;92.96;64124.06;5062506;28;20255;-72
2023/06/20 06:21:19;;;;;;;10.48;9.48;;;;;;;20.59;91.39;64130.84;5066777;28;20220;-75
2023/06/20 06:23:47;;;;;;;12.20;9.68;;;;;;;20.76;86.42;64150.13;5069924;28;20260;-76
2023/06/20 06:26:14;;;;;;;16.58;10.50;;;;;;;20.59;83.67;64132.91;5081892;28;20218;-75
2023/06/20 06:28:43;;;;;;;10.35;9.35;;;;;;;20.86;83.96;64158.00;5062429;28;20217;-75
2023/06/20 06:31:13;;;;;;;10.68;9.57;;;;;;;20.94;83.12;64166.84;5062907;28;20259;-75
2023/06/20 06:33:41;;;;;;;13.40;11.02;;;;;;;20.95;84.49;64167.38;5063819;28;20200;-73
2023/06/20 06:36:09;;;;;;;12.98;10.25;;;;;;;20.71;84.13;64139.75;5066410;28;20258;-75
2023/06/20 06:38:36;;;;;;;18.50;9.93;;;;;;;20.49;87.76;64115.22;5068664;28;20265;-75
2023/06/20 06:41:03;;;;;;;14.50;10.95;;;;;;;20.59;87.43;64130.84;5064438;28;20220;-75
2023/06/20 06:43:30;;;;;;;11.20;9.95;;;;;;;20.77;87.53;64151.19;5077919;28;20192;-72
2023/06/20 06:45:59;;;;;;;10.95;9.82;;;;;;;20.93;86.45;64165.28;5068022;28;20221;-76
2023/06/20 06:48:26;;;;;;;11.02;9.55;;;;;;;21.25;84.42;64201.84;5079880;28;20200;-75
2023/06/20 06:50:55;;;;;;;13.20;9.43;;;;;;;21.53;82.04;64227.97;5071644;28;20255;-76
2023/06/20 06:53:22;;;;;;;11.85;9.70;;;;;;;21.66;79.44;64244.66;5067541;28;20227;-76
2023/06/20 06:55:48;;;;;;;12.82;9.35;;;;;;;21.78;78.86;64254.09;5066109;28;20348;-76
2023/06/20 06:58:15;;;;;;;12.15;9.05;;;;;;;21.88;79.03;64269.22;5086436;28;20203;-73
2023/06/20 07:00:43;;;;;;;14.77;9.10;;;;;;;21.96;76.03;64269.81;5076985;28;20225;-76
2023/06/20 07:03:11;;;;;;;9.30;8.27;;;;;;;22.08;79.15;64282.88;5066487;28;20266;-76
2023/06/20 07:05:38;;;;;;;11.73;8.68;;;;;;;22.01;78.18;64280.22;5075260;28;20216;-73
2023/06/20 07:08:05;;;;;;;10.68;9.27;;;;;;;22.00;79.10;64281.78;5065773;28;20211;-75
2023/06/20 07:10:32;;;;;;;12.27;9.82;;;;;;;21.99;79.33;64275.53;5065732;28;20236;-74
2023/06/20 07:13:00;;;;;;;14.70;9.55;;;;;;;22.18;80.41;64301.09;5072795;28;20193;-74
2023/06/20 07:15:27;;;;;;;12.95;9.10;;;;;;;22.26;79.62;64301.16;5076624;28;20432;-75
2023/06/20 07:17:54;;;;;;;11.55;9.80;;;;;;;22.36;80.78;64311.63;5082275;28;20424;-73
2023/06/20 07:20:22;;;;;;;14.00;9.80;;;;;;;22.30;77.84;64307.94;5087327;28;20220;-72
2023/06/20 07:22:49;;;;;;;14.43;9.30;;;;;;;22.24;76.48;64304.25;5085574;28;20206;-73
2023/06/20 07:25:19;;;;;;;9.95;8.63;;;;;;;22.22;73.87;64296.97;5084096;28;20195;-72
2023/06/20 07:27:46;;;;;;;13.30;9.15;;;;;;;22.27;73.07;64302.72;5069858;28;20212;-75
2023/06/20 07:30:13;;;;;;;9.75;8.70;;;;;;;22.49;74.36;64322.59;5071363;28;20196;-74
2023/06/20 07:32:40;;;;;;;8.75;7.85;;;;;;;22.54;69.05;64330.97;5065595;28;20295;-73
2023/06/20 07:35:08;;;;;;;11.60;8.73;;;;;;;22.55;72.96;64334.09;5065478;28;20205;-74
2023/06/20 07:37:36;;;;;;;10.55;8.30;;;;;;;22.75;71.25;64355.53;5081430;28;20212;-74
2023/06/20 07:40:06;;;;;;;11.88;8.10;;;;;;;22.83;69.65;64366.47;5074209;28;20247;-73
2023/06/20 07:42:33;;;;;;;10.65;8.07;;;;;;;23.02;68.66;64380.63;5076716;28;20239;-74
2023/06/20 07:45:00;;;;;;;11.13;7.63;;;;;;;23.13;64.96;64397.34;5070416;28;20477;-75
2023/06/20 07:47:27;;;;;;;13.70;7.28;;;;;;;23.17;63.94;64398.41;5073418;28;20220;-74
2023/06/20 07:49:54;;;;;;;9.73;6.05;;;;;;;23.20;55.78;64404.13;5070152;28;20199;-75
2023/06/20 07:52:22;;;;;;;7.32;6.60;;;;;;;23.32;56.34;64414.09;5071559;28;20299;-74
2023/06/20 07:54:50;;;;;;;7.75;5.78;;;;;;;23.58;50.14;64441.84;5072316;28;20208;-75
2023/06/20 07:57:17;;;;;;;6.10;5.60;;;;;;;23.68;49.87;64454.91;5066994;28;20225;-74
2023/06/20 07:59:44;;;;;;;7.85;5.90;;;;;;;23.65;51.87;64449.16;5071326;28;20200;-76
2023/06/20 08:02:11;;;;;;;6.22;5.72;;;;;;;23.86;50.83;64471.13;5070992;28;20225;-74
2023/06/20 08:04:38;;;;;;;6.00;5.50;;;;;;;24.13;48.57;64506.16;5065125;28;20243;-74
2023/06/20 08:07:06;;;;;;;6.13;5.40;;;;;;;24.34;47.80;64520.34;5069699;28;20523;-75
2023/06/20 08:09:33;;;;;;;6.75;6.05;;;;;;;24.33;48.50;64519.84;5064241;28;20231;-73
2023/06/20 08:12:01;;;;;;;11.23;6.28;;;;;;;24.54;49.63;64541.28;5067112;28;20315;-74
2023/06/20 08:14:32;;;;;;;5.70;5.25;;;;;;;24.52;47.47;64541.81;5064792;28;20474;-75
2023/06/20 08:16:58;;;;;;;6.47;5.90;;;;;;;24.67;47.64;64554.91;5068615;28;20220;-75
2023/06/20 08:19:26;;;;;;;7.82;5.78;;;;;;;24.79;46.77;64567.47;5080828;28;20224;-75
2023/06/20 08:21:53;;;;;;;6.40;5.88;;;;;;;25.00;47.60;64594.69;5071002;28;20224;-76
2023/06/20 08:24:20;;;;;;;6.80;6.20;;;;;;;24.80;46.98;64571.13;5072075;28;20266;-74
2023/06/20 08:26:47;;;;;;;6.38;5.68;;;;;;;24.58;46.95;64545.47;5068939;28;20337;-74
2023/06/20 08:29:15;;;;;;;6.63;6.03;;;;;;;24.74;47.00;64562.78;5068896;28;20222;-73
2023/06/20 08:31:43;;;;;;;6.65;5.95;;;;;;;24.92;47.37;64586.84;5072546;28;20545;-73
2023/06/20 08:34:10;;;;;;;7.43;5.32;;;;;;;24.67;47.58;64554.91;5075213;28;20197;-72
2023/06/20 08:36:37;;;;;;;6.68;5.63;;;;;;;24.76;48.09;64562.28;5071058;28;20275;-74
2023/06/20 08:39:04;;;;;;;7.63;5.93;;;;;;;24.69;48.22;64559.63;5072199;28;20219;-75
2023/06/20 08:41:32;;;;;;;6.65;6.10;;;;;;;25.06;47.80;64598.38;5072828;28;20250;-74
2023/06/20 08:43:58;;;;;;;6.07;5.68;;;;;;;25.26;48.08;64618.81;5069997;28;20442;-74
2023/06/20 08:46:27;;;;;;;7.32;6.35;;;;;;;25.16;46.56;64605.72;5071894;28;20228;-74
2023/06/20 08:48:54;;;;;;;7.25;6.55;;;;;;;25.18;47.43;64605.72;5066689;28;20268;-75
2023/06/20 08:51:23;;;;;;;6.50;5.95;;;;;;;24.87;47.26;64578.47;5064707;28;20232;-72
2023/06/20 08:53:53;;;;;;;5.93;5.53;;;;;;;25.16;48.20;64606.25;5062291;28;20224;-73
2023/06/20 08:56:21;;;;;;;6.50;5.80;;;;;;;25.36;48.03;64624.06;5066056;28;20409;-75
2023/06/20 08:58:48;;;;;;;8.48;6.18;;;;;;;25.45;47.44;64638.72;5063952;28;20213;-74
2023/06/20 09:01:15;;;;;;;6.60;5.70;;;;;;;25.38;45.46;64631.41;5067254;28;20211;-74
2023/06/20 09:03:44;;;;;;;6.35;5.80;;;;;;;25.44;46.20;64632.97;5067749;28;20210;-75
2023/06/20 09:06:11;;;;;;;6.53;5.97;;;;;;;25.56;45.60;64648.16;5075687;28;20212;-76
2023/06/20 09:08:39;;;;;;;6.18;5.70;;;;;;;25.83;44.06;64678.56;5062652;28;20197;-75
2023/06/20 09:11:08;;;;;;;6.93;6.20;;;;;;;25.61;44.77;64650.78;5069357;28;20228;-75
2023/06/20 09:13:35;;;;;;;6.63;6.10;;;;;;;25.64;46.06;64653.94;5070353;28;20211;-75
2023/06/20 09:16:07;;;;;;;7.00;6.20;;;;;;;25.94;45.59;64690.59;5075166;28;20506;-76
2023/06/20 09:18:35;;;;;;;6.47;5.97;;;;;;;25.75;44.76;64668.06;5069660;28;20250;-75
2023/06/20 09:21:03;;;;;;;6.85;6.25;;;;;;;25.54;46.96;64648.16;5067763;28;20529;-72
2023/06/20 09:23:32;;;;;;;8.60;6.82;;;;;;;25.49;46.32;64640.31;5063000;28;20201;-75
2023/06/20 09:26:14;;;;;;;9.32;5.72;;;;;;;25.64;46.46;64659.16;5073763;28;20234;-75
2023/06/20 09:28:41;;;;;;;5.40;5.10;;;;;;;25.58;44.98;64652.88;5071336;28;20216;-75
2023/06/20 09:31:08;;;;;;;6.13;5.65;;;;;;;25.70;45.07;64660.22;5074379;28;20224;-76
2023/06/20 09:33:37;;;;;;;7.13;6.53;;;;;;;25.68;44.59;64660.75;5067831;28;20192;-76
2023/06/20 09:36:16;;;;;;;6.55;6.05;;;;;;;25.55;44.06;64652.34;5066391;28;20224;-75
2023/06/20 09:38:44;;;;;;;7.15;6.60;;;;;;;25.85;43.96;64681.16;5067503;28;20221;-75
2023/06/20 09:41:15;;;;;;;6.93;5.95;;;;;;;26.25;44.15;64722.06;5067874;28;20220;-74
2023/06/20 09:43:42;;;;;;;5.85;5.35;;;;;;;26.69;43.20;64771.38;5063860;28;20339;-75
2023/06/20 09:46:10;;;;;;;6.07;5.68;;;;;;;27.05;44.69;64806.50;5069789;28;20228;-76
2023/06/20 09:48:38;;;;;;;6.13;5.63;;;;;;;26.98;42.48;64796.03;5076042;28;20196;-73
2023/06/20 09:51:07;;;;;;;9.20;6.40;;;;;;;26.73;43.04;64778.16;5069563;28;20602;-74
2023/06/20 09:53:44;;;;;;;6.57;6.00;;;;;;;26.53;43.37;64751.41;5070981;28;20224;-75
2023/06/20 09:56:15;;;;;;;6.75;6.13;;;;;;;26.81;42.67;64780.81;5069927;28;20212;-75
2023/06/20 09:58:45;;;;;;;6.68;6.07;;;;;;;26.80;43.03;64782.91;5086268;28;20192;-74
2023/06/20 10:01:15;;;;;;;6.65;6.05;;;;;;;26.33;43.33;64728.38;5074978;28;20433;-73
2023/06/20 10:03:43;;;;;;;6.90;6.40;;;;;;;26.13;45.03;64707.94;5062654;28;20219;-73
2023/06/20 10:06:10;;;;;;;8.10;6.50;;;;;;;25.98;45.01;64692.19;5073291;28;20247;-74
2023/06/20 10:08:40;;;;;;;7.07;6.05;;;;;;;26.00;45.95;64694.28;5064864;28;20234;-74
2023/06/20 10:11:08;;;;;;;7.22;6.63;;;;;;;26.06;46.12;64703.19;5074020;28;20227;-75
2023/06/20 10:13:36;;;;;;;7.25;6.60;;;;;;;26.03;45.59;64700.06;5073715;28;20228;-73
2023/06/20 10:16:04;;;;;;;6.82;6.32;;;;;;;25.77;45.76;64674.88;5068444;28;20405;-76
2023/06/20 10:18:38;;;;;;;7.30;6.70;;;;;;;25.96;45.02;64694.78;5066998;28;20336;-75
2023/06/20 10:21:13;;;;;;;10.13;6.95;;;;;;;25.96;45.57;64695.31;5068560;28;20216;-75
2023/06/20 10:23:42;;;;;;;8.18;7.18;;;;;;;26.32;45.91;64732.53;5067669;28;20416;-75
2023/06/20 10:26:11;;;;;;;7.30;6.70;;;;;;;26.61;43.73;64757.72;5075059;28;20219;-74
2023/06/20 10:28:39;;;;;;;9.25;6.97;;;;;;;26.54;45.41;64750.38;5072570;28;20244;-76
2023/06/20 10:31:06;;;;;;;8.48;6.75;;;;;;;26.75;44.93;64777.66;5087265;28;20212;-74
2023/06/20 10:33:34;;;;;;;6.53;6.03;;;;;;;26.53;46.01;64751.94;5087173;28;20450;-75
2023/06/20 10:36:04;;;;;;;7.30;6.70;;;;;;;26.75;45.33;64772.44;5081374;28;20254;-75
2023/06/20 10:38:33;;;;;;;6.97;6.38;;;;;;;26.70;46.07;64766.66;5089039;28;20192;-74
2023/06/20 10:41:12;;;;;;;7.10;6.40;;;;;;;26.45;46.14;64743.03;5088158;28;20228;-75
2023/06/20 10:43:50;;;;;;;7.53;6.85;;;;;;;27.02;43.55;64802.84;5088275;28;20255;-75
2023/06/20 10:46:17;;;;;;;6.80;6.28;;;;;;;27.61;42.04;64864.25;5087707;28;20279;-75
2023/06/20 10:48:45;;;;;;;7.00;6.50;;;;;;;27.73;42.39;64877.38;5087231;28;20196;-74
2023/06/20 10:51:12;;;;;;;6.50;6.10;;;;;;;26.72;43.24;64763.53;5086727;28;20224;-76
2023/06/20 10:53:40;;;;;;;10.45;6.38;;;;;;;26.66;43.87;64762.44;5089320;28;20232;-75
2023/06/20 10:56:08;;;;;;;7.47;6.88;;;;;;;26.29;44.41;64724.19;5087577;28;20204;-75
2023/06/20 10:58:35;;;;;;;6.20;5.68;;;;;;;26.69;44.04;64770.84;5075031;28;20240;-75
2023/06/20 11:01:02;;;;;;;7.50;6.80;;;;;;;26.80;43.98;64774.53;5067538;28;20217;-77
2023/06/20 11:03:31;;;;;;;6.22;5.72;;;;;;;27.23;43.04;64822.25;5067195;28;20342;-74
2023/06/20 11:05:58;;;;;;;6.68;6.22;;;;;;;27.56;43.37;64856.38;5070362;28;20522;-74
2023/06/20 11:08:26;;;;;;;6.57;6.07;;;;;;;27.26;46.21;64822.78;5069525;28;20205;-72
2023/06/20 11:10:53;;;;;;;6.90;6.38;;;;;;;27.38;44.61;64840.63;5071065;28;20229;-75
2023/06/20 11:13:23;;;;;;;7.03;5.97;;;;;;;27.66;46.21;64867.41;5067508;28;20235;-76
2023/06/20 11:15:50;;;;;;;7.43;6.72;;;;;;;27.83;44.77;64882.63;5070130;28;20224;-76
2023/06/20 11:18:17;;;;;;;7.20;6.47;;;;;;;27.78;43.48;64876.84;5066650;28;20197;-75
2023/06/20 11:20:45;;;;;;;6.80;6.07;;;;;;;27.89;44.95;64888.38;5066627;28;20448;-74
2023/06/20 11:23:13;;;;;;;6.80;6.28;;;;;;;27.76;44.24;64877.91;5068860;28;20272;-73
2023/06/20 11:25:41;;;;;;;6.70;6.15;;;;;;;27.50;45.19;64852.69;5087703;28;20216;-75
2023/06/20 11:28:10;;;;;;;7.75;6.65;;;;;;;27.59;44.73;64865.28;5086907;28;20192;-76
2023/06/20 11:30:40;;;;;;;6.75;6.07;;;;;;;27.50;44.35;64850.06;5086465;28;20254;-73
2023/06/20 11:33:08;;;;;;;6.45;5.90;;;;;;;27.33;43.39;64832.25;5076873;28;20233;-75